Time;durP1;ratioP1;P1;durP2;ratioP2;P2;SDS_P1;SDS_P2;PMS_P1;PMS_P2;Temp;Humidity;BMP_temperature;BMP_pressure;BME280_temperature;BME280_humidity;BME280_pressure;Samples;Min_cycle;Max_cycle;Signal;HPM_P1;HPM_P2
2023/01/29 00:02:11;;;;;;;10.30;6.75;;;;;;;;;;4966702;28;20046;-80
2023/01/29 00:04:39;;;;;;;9.68;6.57;;;;;;;;;;4969771;28;20050;-81
2023/01/29 00:07:07;;;;;;;9.20;6.38;;;;;;;;;;4970263;28;20365;-80
2023/01/29 00:09:34;;;;;;;8.55;6.30;;;;;;;;;;4970662;28;20055;-80
2023/01/29 00:12:02;;;;;;;7.47;5.80;;;;;;;;;;4969131;28;20058;-81
2023/01/29 00:14:29;;;;;;;8.68;6.28;;;;;;;;;;4956327;28;20386;-81
2023/01/29 00:16:57;;;;;;;8.68;6.65;;;;;;;;;;4969172;28;20053;-80
2023/01/29 00:19:24;;;;;;;8.95;6.55;;;;;;;;;;4971270;28;20110;-81
2023/01/29 00:21:52;;;;;;;9.73;6.50;;;;;;;;;;4968683;28;20311;-81
2023/01/29 00:24:19;;;;;;;10.90;6.25;;;;;;;;;;4962379;28;20050;-80
2023/01/29 00:26:48;;;;;;;9.30;5.78;;;;;;;;;;4970923;28;20421;-81
2023/01/29 00:29:17;;;;;;;8.07;5.70;;;;;;;;;;4971565;28;20133;-80
2023/01/29 00:31:45;;;;;;;9.00;5.53;;;;;;;;;;4971325;28;20059;-82
2023/01/29 00:34:12;;;;;;;8.68;5.85;;;;;;;;;;4965902;28;20517;-77
2023/01/29 00:36:40;;;;;;;9.57;6.30;;;;;;;;;;4966870;28;20133;-77
2023/01/29 00:39:09;;;;;;;7.82;5.82;;;;;;;;;;4967764;28;20054;-78
2023/01/29 00:49:56;;;;;;;4.57;4.10;;;;;;;;;;4971884;28;20042;-80
2023/01/29 00:52:23;;;;;;;6.60;4.80;;;;;;;;;;4980190;28;20126;-82
2023/01/29 00:54:51;;;;;;;4.68;4.18;;;;;;;;;;4989862;28;20050;-82
2023/01/29 00:57:19;;;;;;;9.27;4.70;;;;;;;;;;4985764;28;20057;-81
2023/01/29 00:59:46;;;;;;;6.18;4.47;;;;;;;;;;4975415;28;20043;-81
2023/01/29 01:05:02;;;;;;;5.53;4.75;;;;;;;;;;4957336;28;20038;-80
2023/01/29 01:07:30;;;;;;;5.97;4.78;;;;;;;;;;4955335;28;20039;-82
2023/01/29 01:12:44;;;;;;;4.88;4.20;;;;;;;;;;4971853;28;20671;-80
2023/01/29 01:15:12;;;;;;;6.00;4.72;;;;;;;;;;4970584;28;20481;-82
2023/01/29 01:17:40;;;;;;;4.97;4.38;;;;;;;;;;4960853;28;20500;-80
2023/01/29 01:20:08;;;;;;;6.07;4.30;;;;;;;;;;4961183;28;20038;-81
2023/01/29 01:22:36;;;;;;;6.22;4.18;;;;;;;;;;4969908;28;20043;-80
2023/01/29 01:25:03;;;;;;;5.75;4.07;;;;;;;;;;4967948;28;20401;-79
2023/01/29 01:27:31;;;;;;;4.03;3.63;;;;;;;;;;4966874;28;20109;-80
2023/01/29 01:29:58;;;;;;;5.15;3.75;;;;;;;;;;4960215;28;20043;-81
2023/01/29 01:32:25;;;;;;;5.88;4.07;;;;;;;;;;4969047;28;20080;-80
2023/01/29 01:34:53;;;;;;;5.13;4.10;;;;;;;;;;4968442;28;20047;-80
2023/01/29 01:37:20;;;;;;;5.22;3.80;;;;;;;;;;4956748;28;20910;-80
2023/01/29 01:39:49;;;;;;;5.38;4.22;;;;;;;;;;4956695;28;20049;-80
2023/01/29 01:42:16;;;;;;;7.45;5.63;;;;;;;;;;4953832;28;20675;-80
2023/01/29 01:44:52;;;;;;;4.95;4.32;;;;;;;;;;4956717;28;20047;-80
2023/01/29 01:47:45;;;;;;;6.65;6.05;;;;;;;;;;4967861;28;20109;-80
2023/01/29 01:50:39;;;;;;;5.57;4.85;;;;;;;;;;4951457;28;20468;-79
2023/01/29 01:53:08;;;;;;;7.80;6.10;;;;;;;;;;4951372;28;20568;-80
2023/01/29 01:55:37;;;;;;;13.48;12.43;;;;;;;;;;4968469;28;20043;-82
2023/01/29 01:58:15;;;;;;;8.88;6.05;;;;;;;;;;4970943;28;20135;-80
2023/01/29 02:00:43;;;;;;;9.80;7.28;;;;;;;;;;4967072;28;20141;-82
2023/01/29 02:11:36;;;;;;;8.63;6.00;;;;;;;;;;4963730;28;20050;-80
2023/01/29 02:14:04;;;;;;;7.47;6.20;;;;;;;;;;4973296;28;20039;-82
2023/01/29 02:16:33;;;;;;;7.53;6.32;;;;;;;;;;4979921;28;20051;-82
2023/01/29 02:19:04;;;;;;;9.18;6.50;;;;;;;;;;4953284;28;20323;-80
2023/01/29 02:21:40;;;;;;;8.80;5.32;;;;;;;;;;4956815;28;20138;-81
2023/01/29 02:24:10;;;;;;;15.48;13.95;;;;;;;;;;4970663;28;20075;-80
2023/01/29 02:26:44;;;;;;;7.45;6.05;;;;;;;;;;4969422;28;20078;-80
2023/01/29 02:29:32;;;;;;;8.57;6.10;;;;;;;;;;4944128;28;20102;-83
2023/01/29 02:32:05;;;;;;;7.53;5.63;;;;;;;;;;4952138;28;20425;-81
2023/01/29 02:37:45;;;;;;;8.55;6.40;;;;;;;;;;4956475;28;20061;-79
2023/01/29 02:40:26;;;;;;;6.43;5.70;;;;;;;;;;4975043;28;20043;-82
2023/01/29 02:43:00;;;;;;;8.57;6.40;;;;;;;;;;4971697;28;20094;-79
2023/01/29 02:45:32;;;;;;;13.30;12.30;;;;;;;;;;4957162;28;20051;-81
2023/01/29 02:48:01;;;;;;;6.93;6.00;;;;;;;;;;4957338;28;20413;-80
2023/01/29 02:50:32;;;;;;;8.65;6.47;;;;;;;;;;4970424;28;20412;-80
2023/01/29 02:53:11;;;;;;;30.05;27.83;;;;;;;;;;4955386;28;20062;-80
2023/01/29 02:55:38;;;;;;;8.95;6.53;;;;;;;;;;4967390;28;20054;-81
2023/01/29 02:58:27;;;;;;;8.00;7.20;;;;;;;;;;4973210;28;20051;-80
2023/01/29 03:00:58;;;;;;;6.70;5.80;;;;;;;;;;4960212;28;20054;-79
2023/01/29 03:03:28;;;;;;;9.50;6.60;;;;;;;;;;4967785;28;20047;-80
2023/01/29 03:06:18;;;;;;;8.05;5.85;;;;;;;;;;4964369;28;20408;-80
2023/01/29 03:08:57;;;;;;;7.70;6.18;;;;;;;;;;4970834;28;20061;-80
2023/01/29 03:11:29;;;;;;;6.63;5.72;;;;;;;;;;4967540;28;20760;-81
2023/01/29 03:13:57;;;;;;;8.43;6.13;;;;;;;;;;4955813;28;20118;-81
2023/01/29 03:16:32;;;;;;;8.23;6.22;;;;;;;;;;4955929;28;20137;-79
2023/01/29 03:19:05;;;;;;;7.72;6.30;;;;;;;;;;4957273;28;20122;-79
2023/01/29 03:21:52;;;;;;;9.23;6.53;;;;;;;;;;4970493;28;20058;-80
2023/01/29 03:33:10;;;;;;;7.00;5.80;;;;;;;;;;4956864;28;20379;-79
2023/01/29 03:35:41;;;;;;;7.47;6.20;;;;;;;;;;4951315;28;20043;-81
2023/01/29 03:38:10;;;;;;;8.68;6.63;;;;;;;;;;4954399;28;20053;-80
2023/01/29 03:40:50;;;;;;;15.30;13.90;;;;;;;;;;4949546;28;20081;-81
2023/01/29 03:43:36;;;;;;;12.00;10.82;;;;;;;;;;4956497;28;20069;-80
2023/01/29 03:46:17;;;;;;;7.10;5.97;;;;;;;;;;4957713;28;20134;-80
2023/01/29 03:48:54;;;;;;;8.27;6.38;;;;;;;;;;4970355;28;20051;-80
2023/01/29 03:51:25;;;;;;;7.85;6.07;;;;;;;;;;4965823;28;20509;-81
2023/01/29 03:53:56;;;;;;;14.80;13.68;;;;;;;;;;4967844;28;20055;-81
2023/01/29 03:56:25;;;;;;;8.70;7.53;;;;;;;;;;4968544;28;20054;-80
2023/01/29 03:59:01;;;;;;;8.75;7.07;;;;;;;;;;4950903;28;20054;-79
2023/01/29 04:01:51;;;;;;;17.10;15.60;;;;;;;;;;4949269;28;20051;-79
2023/01/29 04:04:26;;;;;;;7.45;5.75;;;;;;;;;;4961855;28;20053;-79
2023/01/29 04:06:57;;;;;;;9.05;8.25;;;;;;;;;;4969880;28;20082;-80
2023/01/29 04:09:30;;;;;;;15.88;14.57;;;;;;;;;;4964270;28;20054;-79
2023/01/29 04:12:08;;;;;;;8.98;6.78;;;;;;;;;;4960999;28;20043;-80
2023/01/29 04:14:38;;;;;;;9.75;6.38;;;;;;;;;;4935518;29;20047;-80
2023/01/29 04:17:08;;;;;;;10.70;8.98;;;;;;;;;;4954586;28;20079;-77
2023/01/29 04:19:43;;;;;;;10.90;9.95;;;;;;;;;;4958187;28;20105;-79
2023/01/29 04:22:18;;;;;;;5.88;5.18;;;;;;;;;;4953119;28;20142;-78
2023/01/29 04:24:47;;;;;;;6.45;5.22;;;;;;;;;;4963464;28;20047;-80
2023/01/29 04:27:28;;;;;;;12.13;11.18;;;;;;;;;;4958333;28;20509;-79
2023/01/29 04:30:04;;;;;;;13.40;12.32;;;;;;;;;;4971281;28;20073;-80
2023/01/29 04:32:50;;;;;;;7.30;5.47;;;;;;;;;;4973417;28;20145;-83
2023/01/29 04:35:35;;;;;;;5.90;5.30;;;;;;;;;;4965895;28;20035;-80
2023/01/29 04:38:11;;;;;;;6.88;5.38;;;;;;;;;;4959584;28;20464;-79
2023/01/29 04:40:48;;;;;;;7.90;7.20;;;;;;;;;;4969743;28;20051;-82
2023/01/29 04:43:21;;;;;;;32.28;30.08;;;;;;;;;;4971970;28;20050;-81
2023/01/29 04:46:00;;;;;;;6.85;5.53;;;;;;;;;;4979680;28;20088;-80
2023/01/29 04:48:46;;;;;;;7.70;6.15;;;;;;;;;;4969403;28;20070;-80
2023/01/29 04:51:24;;;;;;;18.10;16.67;;;;;;;;;;4951802;28;20057;-82
2023/01/29 04:53:59;;;;;;;7.95;7.05;;;;;;;;;;4977899;28;20048;-81
2023/01/29 04:56:35;;;;;;;6.07;5.40;;;;;;;;;;4977228;28;20130;-80
2023/01/29 04:59:12;;;;;;;7.80;7.00;;;;;;;;;;4966976;28;20501;-81
2023/01/29 05:01:40;;;;;;;5.40;4.85;;;;;;;;;;4960676;28;20138;-81
2023/01/29 05:04:10;;;;;;;10.02;9.07;;;;;;;;;;4965399;28;20050;-82
2023/01/29 05:06:38;;;;;;;5.80;5.30;;;;;;;;;;4967156;28;20054;-79
2023/01/29 05:09:06;;;;;;;6.90;5.68;;;;;;;;;;4967620;28;20133;-81
2023/01/29 05:11:35;;;;;;;8.57;5.90;;;;;;;;;;4968762;28;20521;-80
2023/01/29 05:14:04;;;;;;;5.25;4.75;;;;;;;;;;4961637;28;20509;-79
2023/01/29 05:16:40;;;;;;;6.97;5.22;;;;;;;;;;4964151;28;20043;-81
2023/01/29 05:19:11;;;;;;;5.32;4.75;;;;;;;;;;4968272;28;20135;-81
2023/01/29 05:21:39;;;;;;;6.93;4.90;;;;;;;;;;4967072;28;20059;-78
2023/01/29 05:24:07;;;;;;;5.40;4.88;;;;;;;;;;4963315;28;20054;-78
2023/01/29 05:29:21;;;;;;;9.25;8.40;;;;;;;;;;4962575;28;20055;-79
2023/01/29 05:31:48;;;;;;;8.48;4.90;;;;;;;;;;4964027;28;20063;-80
2023/01/29 05:34:16;;;;;;;6.80;5.35;;;;;;;;;;4947459;28;20057;-78
2023/01/29 05:36:43;;;;;;;8.93;8.10;;;;;;;;;;4966244;28;20417;-79
2023/01/29 05:39:11;;;;;;;19.65;18.33;;;;;;;;;;4963237;28;20051;-80
2023/01/29 05:41:38;;;;;;;9.20;4.88;;;;;;;;;;4965094;28;20055;-78
2023/01/29 05:44:05;;;;;;;9.93;9.02;;;;;;;;;;4966759;28;20046;-80
2023/01/29 05:46:33;;;;;;;5.05;4.55;;;;;;;;;;4964383;28;20090;-81
2023/01/29 05:49:00;;;;;;;4.28;3.88;;;;;;;;;;4966645;28;20497;-79
2023/01/29 05:51:27;;;;;;;3.97;3.58;;;;;;;;;;4963697;28;20051;-79
2023/01/29 05:53:55;;;;;;;7.07;4.30;;;;;;;;;;4951347;28;20452;-80
2023/01/29 05:56:24;;;;;;;6.63;6.00;;;;;;;;;;4964428;28;20211;-81
2023/01/29 05:58:51;;;;;;;4.78;4.20;;;;;;;;;;4968601;28;20051;-79
2023/01/29 06:01:20;;;;;;;5.20;4.47;;;;;;;;;;4960775;28;20043;-79
2023/01/29 06:03:47;;;;;;;3.55;3.22;;;;;;;;;;4966586;28;20075;-79
2023/01/29 06:06:15;;;;;;;17.92;16.85;;;;;;;;;;4951377;28;20057;-79
2023/01/29 06:08:42;;;;;;;6.28;3.35;;;;;;;;;;4966366;28;20051;-79
2023/01/29 06:11:11;;;;;;;22.08;20.40;;;;;;;;;;4965629;28;20139;-81
2023/01/29 06:13:39;;;;;;;3.70;3.40;;;;;;;;;;4972329;28;20057;-79
2023/01/29 06:16:06;;;;;;;3.42;3.13;;;;;;;;;;4977916;28;20438;-78
2023/01/29 06:18:35;;;;;;;37.28;35.03;;;;;;;;;;4965430;28;20141;-79
2023/01/29 06:21:07;;;;;;;8.00;2.65;;;;;;;;;;4962590;28;20050;-79
2023/01/29 06:23:35;;;;;;;33.90;31.80;;;;;;;;;;4961627;28;20362;-80
2023/01/29 06:26:03;;;;;;;9.70;7.50;;;;;;;;;;4961962;28;20126;-79
2023/01/29 06:28:31;;;;;;;42.22;39.42;;;;;;;;;;4967341;28;20536;-81
2023/01/29 06:30:59;;;;;;;4.13;3.72;;;;;;;;;;4964840;28;20050;-79
2023/01/29 06:33:46;;;;;;;28.63;26.92;;;;;;;;;;4965539;28;20058;-80
2023/01/29 06:36:14;;;;;;;3.20;2.88;;;;;;;;;;4966435;28;20299;-79
2023/01/29 06:38:41;;;;;;;9.15;8.65;;;;;;;;;;4970446;28;20051;-81
2023/01/29 06:41:12;;;;;;;11.98;4.60;;;;;;;;;;4970471;28;20077;-79
2023/01/29 06:43:40;;;;;;;27.27;25.60;;;;;;;;;;4958854;28;20460;-81
2023/01/29 06:46:08;;;;;;;5.85;2.90;;;;;;;;;;4962356;28;20042;-79
2023/01/29 06:48:35;;;;;;;11.75;11.07;;;;;;;;;;4956730;28;20053;-81
2023/01/29 06:51:06;;;;;;;7.30;6.80;;;;;;;;;;4951644;28;20169;-79
2023/01/29 06:53:37;;;;;;;15.02;13.65;;;;;;;;;;4952883;28;20831;-80
2023/01/29 06:56:04;;;;;;;12.30;11.57;;;;;;;;;;4957663;28;20057;-80
2023/01/29 06:58:32;;;;;;;7.10;2.63;;;;;;;;;;4956904;28;20042;-79
2023/01/29 07:01:04;;;;;;;7.70;7.03;;;;;;;;;;4932333;28;20050;-80
2023/01/29 07:03:31;;;;;;;10.38;3.20;;;;;;;;;;4959676;28;20059;-79
2023/01/29 07:05:59;;;;;;;11.98;2.78;;;;;;;;;;4968645;28;20668;-80
2023/01/29 07:08:27;;;;;;;3.70;3.40;;;;;;;;;;4964605;28;20046;-80
2023/01/29 07:11:00;;;;;;;10.02;9.43;;;;;;;;;;4966150;28;20058;-81
2023/01/29 07:13:28;;;;;;;9.73;9.13;;;;;;;;;;4971030;28;20050;-79
2023/01/29 07:16:02;;;;;;;21.67;20.35;;;;;;;;;;4965227;28;20074;-82
2023/01/29 07:18:30;;;;;;;21.40;12.70;;;;;;;;;;4976973;28;20138;-80
2023/01/29 07:20:58;;;;;;;4.90;3.80;;;;;;;;;;4969830;28;20043;-82
2023/01/29 07:23:25;;;;;;;12.82;11.85;;;;;;;;;;4992327;23;21198;-81
2023/01/29 07:25:53;;;;;;;8.15;3.33;;;;;;;;;;5012413;28;20046;-82
2023/01/29 07:28:20;;;;;;;7.43;3.10;;;;;;;;;;4994208;28;20500;-82
2023/01/29 07:30:47;;;;;;;3.85;2.70;;;;;;;;;;5016383;28;20537;-83
2023/01/29 07:33:18;;;;;;;13.32;2.80;;;;;;;;;;4996239;28;20061;-82
2023/01/29 07:35:45;;;;;;;7.50;6.63;;;;;;;;;;5010908;28;20042;-83
2023/01/29 07:38:13;;;;;;;7.43;2.72;;;;;;;;;;5016869;28;20046;-82
2023/01/29 07:40:40;;;;;;;3.65;3.35;;;;;;;;;;5002137;28;20058;-82
2023/01/29 07:43:08;;;;;;;9.90;9.18;;;;;;;;;;4997785;28;20487;-82
2023/01/29 07:45:38;;;;;;;5.57;5.25;;;;;;;;;;4995772;28;20054;-82
2023/01/29 07:48:06;;;;;;;33.38;31.33;;;;;;;;;;5013194;28;20132;-82
2023/01/29 07:50:34;;;;;;;5.88;3.15;;;;;;;;;;4994089;28;20057;-83
2023/01/29 07:53:02;;;;;;;12.85;11.93;;;;;;;;;;5009443;28;20470;-82
2023/01/29 07:55:30;;;;;;;3.70;3.05;;;;;;;;;;5010316;28;20604;-83
2023/01/29 07:58:00;;;;;;;21.83;19.80;;;;;;;;;;5009718;28;20046;-83
2023/01/29 08:00:27;;;;;;;10.55;9.85;;;;;;;;;;4991717;28;20048;-82
2023/01/29 08:03:05;;;;;;;10.18;9.40;;;;;;;;;;5017939;28;20046;-83
2023/01/29 08:05:35;;;;;;;19.90;18.65;;;;;;;;;;5019011;28;20050;-84
2023/01/29 08:08:04;;;;;;;8.38;6.93;;;;;;;;;;5020471;28;20050;-83
2023/01/29 08:10:34;;;;;;;45.63;42.70;;;;;;;;;;5029327;28;20030;-83
2023/01/29 08:13:05;;;;;;;2.53;2.30;;;;;;;;;;5026755;28;20072;-83
2023/01/29 08:15:33;;;;;;;12.50;8.55;;;;;;;;;;5009045;28;20109;-83
2023/01/29 08:18:04;;;;;;;7.15;5.40;;;;;;;;;;5006362;28;20042;-83
2023/01/29 08:20:31;;;;;;;19.20;18.10;;;;;;;;;;5006195;28;20050;-82
2023/01/29 08:23:00;;;;;;;21.35;20.15;;;;;;;;;;4997282;28;20057;-82
2023/01/29 08:25:28;;;;;;;21.73;20.38;;;;;;;;;;5008318;28;20534;-83
2023/01/29 08:27:56;;;;;;;11.90;11.10;;;;;;;;;;5012187;28;20052;-82
2023/01/29 08:30:28;;;;;;;3.65;2.25;;;;;;;;;;5004805;28;20065;-83
2023/01/29 08:32:55;;;;;;;;;;;;;;;;;;5005641;28;20071;-83
2023/01/29 08:35:23;;;;;;;20.35;18.98;;;;;;;;;;5010764;28;19925;-82
2023/01/29 08:37:54;;;;;;;3.65;3.45;;;;;;;;;;4997369;28;20421;-82
2023/01/29 08:40:22;;;;;;;28.58;26.58;;;;;;;;;;4988914;28;20046;-82
2023/01/29 08:42:49;;;;;;;27.42;25.80;;;;;;;;;;4988783;28;20060;-82
2023/01/29 08:45:17;;;;;;;15.52;12.65;;;;;;;;;;4990947;28;20042;-82
2023/01/29 08:47:45;;;;;;;5.28;3.33;;;;;;;;;;5014956;28;20041;-82
2023/01/29 08:50:13;;;;;;;7.65;3.25;;;;;;;;;;5031160;28;20092;-83
2023/01/29 08:52:41;;;;;;;5.90;3.60;;;;;;;;;;5006679;28;20479;-82
2023/01/29 08:55:09;;;;;;;11.57;6.57;;;;;;;;;;5011109;28;20467;-83
2023/01/29 08:57:37;;;;;;;17.85;16.52;;;;;;;;;;5005841;28;20488;-83
2023/01/29 09:00:06;;;;;;;4.47;4.13;;;;;;;;;;4994383;28;20042;-83
2023/01/29 09:02:33;;;;;;;46.50;43.78;;;;;;;;;;4996664;28;20074;-82
2023/01/29 09:05:14;;;;;;;5.73;4.43;;;;;;;;;;5004628;28;20045;-80
2023/01/29 09:07:42;;;;;;;11.15;10.35;;;;;;;;;;4999943;28;20472;-82
2023/01/29 09:10:11;;;;;;;10.25;9.40;;;;;;;;;;5005850;28;20046;-81
2023/01/29 09:12:38;;;;;;;2.80;2.60;;;;;;;;;;5003312;28;20081;-81
2023/01/29 09:15:08;;;;;;;9.48;8.48;;;;;;;;;;5012445;28;20053;-82
2023/01/29 09:17:36;;;;;;;3.08;2.88;;;;;;;;;;4988724;28;20062;-82
2023/01/29 09:20:07;;;;;;;11.15;3.83;;;;;;;;;;5007484;28;20057;-82
2023/01/29 09:22:34;;;;;;;21.38;20.13;;;;;;;;;;5006963;28;20046;-82
2023/01/29 09:25:02;;;;;;;12.13;2.83;;;;;;;;;;5009361;28;20480;-82
2023/01/29 09:27:29;;;;;;;6.13;3.40;;;;;;;;;;5008456;28;20495;-83
2023/01/29 09:29:57;;;;;;;6.80;6.32;;;;;;;;;;5010541;28;20057;-82
2023/01/29 09:32:24;;;;;;;52.17;48.90;;;;;;;;;;5003004;28;20057;-82
2023/01/29 09:35:12;;;;;;;9.63;2.70;;;;;;;;;;4994412;28;20561;-82
2023/01/29 09:37:39;;;;;;;11.75;11.00;;;;;;;;;;5004624;28;20068;-83
2023/01/29 09:40:16;;;;;;;14.43;13.57;;;;;;;;;;5008938;28;20073;-83
2023/01/29 09:42:47;;;;;;;6.78;6.13;;;;;;;;;;5013379;28;20033;-83
2023/01/29 09:45:17;;;;;;;24.58;23.10;;;;;;;;;;5009900;28;20042;-82
2023/01/29 09:47:47;;;;;;;32.83;30.67;;;;;;;;;;5005181;28;20049;-84
2023/01/29 09:50:27;;;;;;;3.10;2.72;;;;;;;;;;5004734;28;20069;-83
2023/01/29 09:52:58;;;;;;;30.35;28.27;;;;;;;;;;5006512;28;20060;-83
2023/01/29 09:55:31;;;;;;;5.88;4.18;;;;;;;;;;5010550;28;20064;-82
2023/01/29 09:58:17;;;;;;;21.02;19.83;;;;;;;;;;5012510;28;20038;-82
2023/01/29 10:00:47;;;;;;;11.75;11.00;;;;;;;;;;4999620;28;20042;-82
2023/01/29 10:03:38;;;;;;;10.75;9.90;;;;;;;;;;5013354;28;20488;-83
2023/01/29 10:06:16;;;;;;;4.90;4.05;;;;;;;;;;4997778;28;20050;-82
2023/01/29 10:08:56;;;;;;;6.40;4.63;;;;;;;;;;5014716;28;20661;-81
2023/01/29 10:11:23;;;;;;;6.95;3.25;;;;;;;;;;5007655;28;20064;-82
2023/01/29 10:14:10;;;;;;;4.75;2.97;;;;;;;;;;5019259;28;20128;-84
2023/01/29 10:16:55;;;;;;;11.68;4.10;;;;;;;;;;5016365;28;20046;-82
2023/01/29 10:19:41;;;;;;;8.23;3.60;;;;;;;;;;4986853;28;20081;-83
2023/01/29 10:22:21;;;;;;;13.82;12.95;;;;;;;;;;5009895;28;20042;-82
2023/01/29 10:24:48;;;;;;;4.82;3.72;;;;;;;;;;5013703;28;20042;-82
2023/01/29 10:27:18;;;;;;;10.25;5.50;;;;;;;;;;5014228;28;20488;-83
2023/01/29 10:29:48;;;;;;;13.00;11.38;;;;;;;;;;4989094;28;20419;-83
2023/01/29 10:32:20;;;;;;;15.23;4.10;;;;;;;;;;4993461;28;20046;-82
2023/01/29 10:34:52;;;;;;;7.22;5.88;;;;;;;;;;5011599;28;20137;-82
2023/01/29 10:37:23;;;;;;;11.00;10.25;;;;;;;;;;5015277;28;20400;-82
2023/01/29 10:39:51;;;;;;;14.02;12.98;;;;;;;;;;5014903;28;20041;-82
2023/01/29 10:42:41;;;;;;;13.73;7.03;;;;;;;;;;5012447;28;20052;-82
2023/01/29 10:45:17;;;;;;;9.05;5.85;;;;;;;;;;5014280;28;20096;-82
2023/01/29 10:47:59;;;;;;;4.82;4.35;;;;;;;;;;4989905;28;20077;-82
2023/01/29 10:50:46;;;;;;;10.88;9.80;;;;;;;;;;5019288;28;20523;-82
2023/01/29 10:53:16;;;;;;;4.95;3.35;;;;;;;;;;5026485;28;20662;-82
2023/01/29 10:55:51;;;;;;;11.68;10.95;;;;;;;;;;5013209;28;20042;-81
2023/01/29 10:58:25;;;;;;;7.45;6.82;;;;;;;;;;4998682;28;20050;-83
2023/01/29 11:00:52;;;;;;;10.38;9.65;;;;;;;;;;5015963;28;20043;-82
2023/01/29 11:03:30;;;;;;;8.30;7.60;;;;;;;;;;5016132;28;20500;-82
2023/01/29 11:06:01;;;;;;;13.45;12.38;;;;;;;;;;5023073;28;20049;-82
2023/01/29 11:08:37;;;;;;;5.05;3.78;;;;;;;;;;4999341;28;20060;-82
2023/01/29 11:11:08;;;;;;;9.43;6.63;;;;;;;;;;5017633;28;20066;-82
2023/01/29 11:13:40;;;;;;;6.47;3.67;;;;;;;;;;5011046;28;20058;-82
2023/01/29 11:16:08;;;;;;;12.80;9.27;;;;;;;;;;5012945;28;20058;-83
2023/01/29 11:18:48;;;;;;;9.55;8.60;;;;;;;;;;5013439;28;20101;-81
2023/01/29 11:21:16;;;;;;;5.05;3.33;;;;;;;;;;5013944;28;20365;-82
2023/01/29 11:23:43;;;;;;;6.75;4.30;;;;;;;;;;5016745;28;20121;-82
2023/01/29 11:26:12;;;;;;;24.10;22.45;;;;;;;;;;4995631;28;20042;-82
2023/01/29 11:28:44;;;;;;;7.25;5.50;;;;;;;;;;5013611;28;20069;-83
2023/01/29 11:31:19;;;;;;;5.05;3.72;;;;;;;;;;4999687;28;20042;-82
2023/01/29 11:33:46;;;;;;;;;;;;;;;;;;5029715;28;20040;-82
2023/01/29 11:36:36;;;;;;;9.70;4.05;;;;;;;;;;5018834;28;20235;-83
2023/01/29 11:39:09;;;;;;;4.30;4.00;;;;;;;;;;5016975;28;20105;-82
2023/01/29 11:42:03;;;;;;;5.80;4.55;;;;;;;;;;5016902;28;20061;-82
2023/01/29 11:44:30;;;;;;;15.27;14.32;;;;;;;;;;5012266;28;20052;-82
2023/01/29 11:47:09;;;;;;;15.48;14.38;;;;;;;;;;5000972;28;20069;-82
2023/01/29 11:49:37;;;;;;;10.30;9.63;;;;;;;;;;5000006;28;20646;-82
2023/01/29 11:52:06;;;;;;;7.80;4.75;;;;;;;;;;5001295;28;20042;-83
2023/01/29 11:54:38;;;;;;;30.33;28.40;;;;;;;;;;4996816;28;20077;-82
2023/01/29 11:57:14;;;;;;;5.75;5.10;;;;;;;;;;5016381;28;20038;-83
2023/01/29 11:59:47;;;;;;;5.43;4.15;;;;;;;;;;5015272;28;20037;-82
2023/01/29 12:02:27;;;;;;;70.45;65.28;;;;;;;;;;5018511;28;20129;-82
2023/01/29 12:04:56;;;;;;;12.65;11.65;;;;;;;;;;5018519;28;20096;-82
2023/01/29 12:07:24;;;;;;;25.60;23.45;;;;;;;;;;5014766;28;20103;-83
2023/01/29 12:09:53;;;;;;;10.10;7.20;;;;;;;;;;5010062;28;20133;-82
2023/01/29 12:12:28;;;;;;;13.60;6.97;;;;;;;;;;5009602;28;20125;-83
2023/01/29 12:15:25;;;;;;;16.67;14.93;;;;;;;;;;5027129;28;20053;-83
2023/01/29 12:17:57;;;;;;;11.90;8.82;;;;;;;;;;4989968;28;20057;-82
2023/01/29 12:20:28;;;;;;;6.68;4.93;;;;;;;;;;5014916;28;20678;-82
2023/01/29 12:23:03;;;;;;;21.75;20.15;;;;;;;;;;5014587;28;20088;-82
2023/01/29 12:25:49;;;;;;;13.43;12.50;;;;;;;;;;5014502;28;20496;-84
2023/01/29 12:28:23;;;;;;;5.03;3.80;;;;;;;;;;5014372;28;20044;-82
2023/01/29 12:31:15;;;;;;;7.53;7.03;;;;;;;;;;4992914;28;20070;-82
2023/01/29 12:34:03;;;;;;;4.65;3.90;;;;;;;;;;5012430;28;20046;-82
2023/01/29 12:36:38;;;;;;;6.25;5.53;;;;;;;;;;4997305;28;20385;-82
2023/01/29 12:39:05;;;;;;;8.20;4.63;;;;;;;;;;5011922;28;20045;-83
2023/01/29 12:41:36;;;;;;;10.35;9.60;;;;;;;;;;5010792;28;20385;-83
2023/01/29 12:44:12;;;;;;;26.88;25.17;;;;;;;;;;4993358;28;20407;-83
2023/01/29 12:46:51;;;;;;;4.80;4.30;;;;;;;;;;5003666;28;20057;-82
2023/01/29 12:49:23;;;;;;;8.98;7.85;;;;;;;;;;5013914;28;20046;-80
2023/01/29 12:52:12;;;;;;;7.75;4.75;;;;;;;;;;5012683;28;20277;-82
2023/01/29 12:54:42;;;;;;;30.45;28.35;;;;;;;;;;5011836;28;20034;-82
2023/01/29 12:57:18;;;;;;;9.13;5.35;;;;;;;;;;5024356;28;20042;-82
2023/01/29 12:59:49;;;;;;;7.65;6.28;;;;;;;;;;5012820;28;20052;-82
2023/01/29 13:02:31;;;;;;;8.30;5.75;;;;;;;;;;4996066;28;20565;-82
2023/01/29 13:05:05;;;;;;;5.90;5.03;;;;;;;;;;4994737;28;20050;-82
2023/01/29 13:07:34;;;;;;;23.15;21.45;;;;;;;;;;5010917;28;20476;-82
2023/01/29 13:10:07;;;;;;;7.70;5.78;;;;;;;;;;5013022;28;20145;-82
2023/01/29 13:12:35;;;;;;;5.85;4.68;;;;;;;;;;5019318;28;20056;-83
2023/01/29 13:15:21;;;;;;;11.98;5.68;;;;;;;;;;5016742;28;20049;-83
2023/01/29 13:17:54;;;;;;;40.70;37.75;;;;;;;;;;4997405;28;20042;-83
2023/01/29 13:20:21;;;;;;;9.80;6.65;;;;;;;;;;5014798;28;20038;-83
2023/01/29 13:22:50;;;;;;;8.23;7.00;;;;;;;;;;5014977;28;20054;-82
2023/01/29 13:25:18;;;;;;;6.30;5.25;;;;;;;;;;4999434;23;20047;-80
2023/01/29 13:27:47;;;;;;;10.10;9.35;;;;;;;;;;4972857;28;20073;-80
2023/01/29 13:30:29;;;;;;;6.45;5.15;;;;;;;;;;4944299;28;20051;-79
2023/01/29 13:33:07;;;;;;;13.93;8.38;;;;;;;;;;4929773;29;20063;-80
2023/01/29 13:35:37;;;;;;;7.70;5.63;;;;;;;;;;4932332;29;20154;-80
2023/01/29 13:38:05;;;;;;;9.80;6.20;;;;;;;;;;4947287;28;20301;-79
2023/01/29 13:40:33;;;;;;;5.63;5.13;;;;;;;;;;4953843;28;20055;-79
2023/01/29 13:43:02;;;;;;;6.88;5.68;;;;;;;;;;4949736;28;20063;-80
2023/01/29 13:45:33;;;;;;;8.20;6.43;;;;;;;;;;4950644;29;20047;-80
2023/01/29 13:48:20;;;;;;;8.38;6.30;;;;;;;;;;4934860;29;20109;-79
2023/01/29 13:50:49;;;;;;;6.63;4.53;;;;;;;;;;4949387;29;20047;-80
2023/01/29 13:53:20;;;;;;;5.88;4.63;;;;;;;;;;4951057;28;20051;-79
2023/01/29 13:55:48;;;;;;;8.95;5.28;;;;;;;;;;4950919;29;20051;-79
2023/01/29 13:58:16;;;;;;;6.88;6.18;;;;;;;;;;4951414;29;20513;-79
2023/01/29 14:00:44;;;;;;;6.38;4.55;;;;;;;;;;4950886;29;20055;-79
2023/01/29 14:03:11;;;;;;;5.47;4.65;;;;;;;;;;4946413;28;20043;-80
2023/01/29 14:05:43;;;;;;;14.95;13.88;;;;;;;;;;4945825;28;20731;-80
2023/01/29 14:08:13;;;;;;;7.57;5.03;;;;;;;;;;4945591;29;20673;-81
2023/01/29 14:10:42;;;;;;;14.98;13.95;;;;;;;;;;4946675;28;20245;-80
2023/01/29 14:13:20;;;;;;;6.05;5.55;;;;;;;;;;4949200;28;20167;-80
2023/01/29 14:15:56;;;;;;;6.82;4.82;;;;;;;;;;4952544;28;20075;-81
2023/01/29 14:18:27;;;;;;;14.45;13.13;;;;;;;;;;4942869;29;20055;-80
2023/01/29 14:21:01;;;;;;;9.97;4.93;;;;;;;;;;4951652;29;20066;-80
2023/01/29 14:23:34;;;;;;;7.25;5.15;;;;;;;;;;4947813;28;20055;-80
2023/01/29 14:26:04;;;;;;;10.68;9.88;;;;;;;;;;4950119;29;20142;-80
2023/01/29 14:28:33;;;;;;;13.63;12.68;;;;;;;;;;4952347;28;20441;-79
2023/01/29 14:31:01;;;;;;;4.43;4.03;;;;;;;;;;4946051;28;20106;-80
2023/01/29 14:33:36;;;;;;;7.35;4.60;;;;;;;;;;4931922;29;20516;-80
2023/01/29 14:36:06;;;;;;;10.45;9.77;;;;;;;;;;4949936;29;20589;-80
2023/01/29 14:38:34;;;;;;;8.50;7.72;;;;;;;;;;4950902;29;20043;-80
2023/01/29 14:41:07;;;;;;;10.23;9.32;;;;;;;;;;4950040;29;20536;-80
2023/01/29 14:43:34;;;;;;;6.35;5.75;;;;;;;;;;4956724;28;20570;-80
2023/01/29 14:46:20;;;;;;;10.13;9.40;;;;;;;;;;4951563;29;20050;-80
2023/01/29 14:48:49;;;;;;;6.38;4.32;;;;;;;;;;4959592;29;20074;-80
2023/01/29 14:51:29;;;;;;;4.38;4.03;;;;;;;;;;4954588;29;20079;-80
2023/01/29 14:54:16;;;;;;;6.30;4.32;;;;;;;;;;4951270;28;20689;-80
2023/01/29 14:56:46;;;;;;;4.88;3.63;;;;;;;;;;4951083;29;20059;-80
2023/01/29 14:59:15;;;;;;;6.82;5.30;;;;;;;;;;4957787;29;20078;-79
2023/01/29 15:01:54;;;;;;;4.63;4.10;;;;;;;;;;4942375;28;20180;-79
2023/01/29 15:04:26;;;;;;;5.03;4.10;;;;;;;;;;4952085;28;20516;-80
2023/01/29 15:06:57;;;;;;;7.30;6.57;;;;;;;;;;4943827;29;20490;-79
2023/01/29 15:09:31;;;;;;;9.30;5.60;;;;;;;;;;4950389;29;20466;-81
2023/01/29 15:12:18;;;;;;;10.02;9.23;;;;;;;;;;4945587;29;20413;-79
2023/01/29 15:15:05;;;;;;;5.53;4.40;;;;;;;;;;4946225;29;20142;-79
2023/01/29 15:17:39;;;;;;;10.93;8.88;;;;;;;;;;4948240;29;20044;-80
2023/01/29 15:20:25;;;;;;;6.95;4.40;;;;;;;;;;4937485;29;20063;-79
2023/01/29 15:22:52;;;;;;;10.32;8.63;;;;;;;;;;4950040;28;20047;-79
2023/01/29 15:25:20;;;;;;;5.60;5.05;;;;;;;;;;4952458;28;20043;-79
2023/01/29 15:27:48;;;;;;;6.63;4.05;;;;;;;;;;4952504;29;20082;-79
2023/01/29 15:30:18;;;;;;;7.70;5.20;;;;;;;;;;4951523;29;20130;-79
2023/01/29 15:32:47;;;;;;;5.38;4.88;;;;;;;;;;4949541;28;20059;-79
2023/01/29 15:35:19;;;;;;;4.25;3.85;;;;;;;;;;4954085;28;20056;-80
2023/01/29 15:37:58;;;;;;;6.70;6.00;;;;;;;;;;4954016;28;20052;-79
2023/01/29 15:40:26;;;;;;;20.10;18.60;;;;;;;;;;4953849;29;20047;-80
2023/01/29 15:42:53;;;;;;;7.35;5.00;;;;;;;;;;4956373;28;20224;-80